createdAt,value
2022-11-26T00:02:26.002Z,14.00
2022-11-26T00:06:34.940Z,14.38
2022-11-26T00:10:39.499Z,12.55
2022-11-26T00:14:42.490Z,15.27
2022-11-26T00:18:45.518Z,17.50
2022-11-26T00:22:52.616Z,15.30
2022-11-26T00:26:59.943Z,17.08
2022-11-26T00:31:05.753Z,13.23
2022-11-26T00:35:09.458Z,16.50
2022-11-26T00:39:17.030Z,16.42
2022-11-26T00:43:21.765Z,15.05
2022-11-26T00:47:24.811Z,11.77
2022-11-26T00:51:29.240Z,14.13
2022-11-26T00:55:35.642Z,13.00
2022-11-26T00:59:39.965Z,12.93
2022-11-26T01:03:44.065Z,9.90
2022-11-26T01:07:47.696Z,12.02
2022-11-26T01:11:54.297Z,8.68
2022-11-26T01:16:01.077Z,11.45
2022-11-26T01:20:05.629Z,8.18
2022-11-26T01:24:08.901Z,6.93
2022-11-26T01:28:14.184Z,5.90
2022-11-26T01:32:18.546Z,6.10
2022-11-26T01:36:27.536Z,7.53
2022-11-26T01:40:39.967Z,3.80
2022-11-26T01:44:44.032Z,3.35
2022-11-26T01:48:49.836Z,4.55
2022-11-26T01:52:53.854Z,4.43
2022-11-26T01:57:00.545Z,4.15
2022-11-26T02:01:03.580Z,3.67
2022-11-26T02:05:13.618Z,3.97
2022-11-26T02:09:17.319Z,2.42
2022-11-26T02:13:20.695Z,4.10
2022-11-26T02:17:28.596Z,4.88
2022-11-26T02:21:37.212Z,6.80
2022-11-26T02:26:18.200Z,5.97
2022-11-26T02:30:22.593Z,4.80
2022-11-26T02:34:37.006Z,6.97
2022-11-26T02:38:40.836Z,7.03
2022-11-26T02:42:43.841Z,5.60
2022-11-26T02:46:50.950Z,7.75
2022-11-26T02:50:58.027Z,5.80
2022-11-26T02:55:03.185Z,8.38
2022-11-26T02:59:06.588Z,6.05
2022-11-26T03:03:22.919Z,6.95
2022-11-26T03:07:27.503Z,6.00
2022-11-26T03:11:31.001Z,5.85
2022-11-26T03:15:34.041Z,5.90
2022-11-26T03:19:38.546Z,5.78
2022-11-26T03:23:41.719Z,7.35
2022-11-26T03:27:44.869Z,6.05
2022-11-26T03:31:48.089Z,8.77
2022-11-26T03:35:52.488Z,6.85
2022-11-26T03:39:55.541Z,6.03
2022-11-26T03:43:58.507Z,6.38
2022-11-26T03:48:01.775Z,5.63
2022-11-26T03:52:06.711Z,7.00
2022-11-26T03:56:09.708Z,5.05
2022-11-26T04:00:14.615Z,8.20
2022-11-26T04:04:17.907Z,7.28
2022-11-26T04:08:22.904Z,6.60
2022-11-26T04:12:27.295Z,5.35
2022-11-26T04:16:30.407Z,6.70
2022-11-26T04:20:33.424Z,7.53
2022-11-26T04:24:38.107Z,7.13
2022-11-26T04:28:41.472Z,7.53
2022-11-26T04:32:44.472Z,5.38
2022-11-26T04:36:47.637Z,6.00
2022-11-26T04:40:52.055Z,5.60
2022-11-26T04:44:55.069Z,6.32
2022-11-26T04:48:58.079Z,5.60
2022-11-26T04:53:01.347Z,5.18
2022-11-26T04:57:05.927Z,7.30
2022-11-26T05:01:09.267Z,5.18
2022-11-26T05:05:12.718Z,6.80
2022-11-26T05:09:15.884Z,4.38
2022-11-26T05:13:20.239Z,4.03
2022-11-26T05:17:23.229Z,4.95
2022-11-26T05:21:26.211Z,4.68
2022-11-26T05:25:29.230Z,6.93
2022-11-26T05:29:33.665Z,5.20
2022-11-26T05:33:36.656Z,5.85
2022-11-26T05:37:39.703Z,5.00
2022-11-26T05:41:42.928Z,7.55
2022-11-26T05:45:47.273Z,4.70
2022-11-26T05:49:50.303Z,3.50
2022-11-26T05:53:53.160Z,3.88
2022-11-26T05:57:56.074Z,5.20
2022-11-26T06:02:00.545Z,5.28
2022-11-26T06:06:03.963Z,7.25
2022-11-26T06:10:08.430Z,7.57
2022-11-26T06:14:11.490Z,4.93
2022-11-26T06:18:16.332Z,6.28
2022-11-26T06:22:19.504Z,3.58
2022-11-26T06:26:22.421Z,4.75
2022-11-26T06:30:25.340Z,3.88
2022-11-26T06:34:30.073Z,5.10
2022-11-26T06:38:33.456Z,4.47
2022-11-26T06:42:36.534Z,5.65
2022-11-26T06:46:39.433Z,4.50
2022-11-26T06:50:43.692Z,4.78
2022-11-26T06:54:46.539Z,5.22
2022-11-26T06:58:50.696Z,5.80
2022-11-26T07:02:53.874Z,4.20
2022-11-26T07:06:58.276Z,4.20
2022-11-26T07:11:03.616Z,5.15
2022-11-26T07:15:07.395Z,4.05
2022-11-26T07:19:14.352Z,4.40
2022-11-26T07:23:18.721Z,4.22
2022-11-26T07:27:22.023Z,4.35
2022-11-26T07:31:25.375Z,4.95
2022-11-26T07:35:28.564Z,3.90
2022-11-26T07:39:33.050Z,4.18
2022-11-26T07:43:36.439Z,5.47
2022-11-26T07:47:39.360Z,6.75
2022-11-26T07:51:42.565Z,6.25
2022-11-26T07:55:46.841Z,4.22
2022-11-26T07:59:49.951Z,4.43
2022-11-26T08:03:53.194Z,5.32
2022-11-26T08:07:56.236Z,6.32
2022-11-26T08:12:00.751Z,4.85
2022-11-26T08:16:03.973Z,5.80
2022-11-26T08:20:08.300Z,4.15
2022-11-26T08:24:14.839Z,4.55
2022-11-26T08:28:19.150Z,3.17
2022-11-26T08:32:25.301Z,4.28
2022-11-26T08:36:31.659Z,4.45
2022-11-26T08:40:34.716Z,3.10
2022-11-26T08:44:39.567Z,5.85
2022-11-26T08:48:42.958Z,5.82
2022-11-26T08:52:46.090Z,4.13
2022-11-26T08:56:49.038Z,7.43
2022-11-26T09:00:53.339Z,5.82
2022-11-26T09:04:56.331Z,7.43
2022-11-26T09:09:18.014Z,6.03
2022-11-26T09:13:22.586Z,6.95
2022-11-26T09:17:26.860Z,7.32
2022-11-26T09:21:29.979Z,4.80
2022-11-26T09:25:33.068Z,7.97
2022-11-26T09:29:36.059Z,5.43
2022-11-26T09:33:40.461Z,5.10
2022-11-26T09:37:46.098Z,4.82
2022-11-26T09:41:58.041Z,4.75
2022-11-26T09:46:02.074Z,4.30
2022-11-26T09:50:17.787Z,5.70
2022-11-26T09:54:23.541Z,6.38
2022-11-26T09:58:31.319Z,6.53
2022-11-26T10:02:35.088Z,6.25
2022-11-26T10:06:51.407Z,5.55
2022-11-26T10:11:03.778Z,4.68
2022-11-26T10:15:17.625Z,5.20
2022-11-26T10:19:27.914Z,5.38
2022-11-26T10:23:39.025Z,5.82
2022-11-26T10:27:42.383Z,6.18
2022-11-26T10:31:47.742Z,4.68
2022-11-26T10:35:51.645Z,3.72
2022-11-26T10:40:02.005Z,4.30
2022-11-26T10:44:30.225Z,5.18
2022-11-26T10:48:34.661Z,3.95
2022-11-26T10:52:39.664Z,3.88
2022-11-26T10:56:47.557Z,4.65
2022-11-26T11:00:57.867Z,4.22
2022-11-26T11:05:04.105Z,5.70
2022-11-26T11:09:25.746Z,5.10
2022-11-26T11:13:42.364Z,4.00
2022-11-26T11:17:46.484Z,5.38
2022-11-26T11:21:49.678Z,3.90
2022-11-26T11:26:01.406Z,10.63
2022-11-26T11:30:07.097Z,5.20
2022-11-26T11:34:14.818Z,5.95
2022-11-26T11:38:23.809Z,3.60
2022-11-26T11:42:29.472Z,3.20
2022-11-26T11:46:55.861Z,4.50
2022-11-26T11:51:08.232Z,4.22
2022-11-26T11:55:22.889Z,4.43
2022-11-26T11:59:58.410Z,4.45
2022-11-26T12:04:20.876Z,3.45
2022-11-26T12:08:37.370Z,4.07
2022-11-26T12:12:44.530Z,3.35
2022-11-26T12:16:53.735Z,6.97
2022-11-26T12:21:02.938Z,4.55
2022-11-26T12:25:15.580Z,3.15
2022-11-26T12:29:28.457Z,4.50
2022-11-26T12:33:35.063Z,3.58
2022-11-26T12:37:42.600Z,3.38
2022-11-26T12:41:51.488Z,3.30
2022-11-26T12:45:59.547Z,4.25
2022-11-26T12:50:16.530Z,6.75
2022-11-26T12:54:25.916Z,2.67
2022-11-26T12:58:38.624Z,6.20
2022-11-26T13:02:44.519Z,4.97
2022-11-26T13:07:03.952Z,5.53
2022-11-26T13:11:21.646Z,3.42
2022-11-26T13:15:33.307Z,6.40
2022-11-26T13:19:41.958Z,8.02
2022-11-26T13:23:57.771Z,4.22
2022-11-26T13:28:15.255Z,6.25
2022-11-26T13:32:43.687Z,3.40
2022-11-26T13:37:14.198Z,3.85
2022-11-26T13:41:30.223Z,4.22
2022-11-26T13:46:05.726Z,3.80
2022-11-26T13:50:14.484Z,3.33
2022-11-26T13:54:22.989Z,2.92
2022-11-26T13:58:31.572Z,3.22
2022-11-26T14:02:44.328Z,4.75
2022-11-26T14:07:21.991Z,3.67
2022-11-26T14:11:56.871Z,2.70
2022-11-26T14:16:02.479Z,5.20
2022-11-26T14:20:10.083Z,2.83
2022-11-26T14:24:33.073Z,2.70
2022-11-26T14:28:36.096Z,3.88
2022-11-26T14:32:42.829Z,2.35
2022-11-26T14:36:56.093Z,3.22
2022-11-26T14:41:00.426Z,5.18
2022-11-26T14:45:05.620Z,3.30
2022-11-26T14:49:21.272Z,2.10
2022-11-26T14:53:29.333Z,2.35
2022-11-26T14:57:42.233Z,2.75
2022-11-26T15:01:46.913Z,3.75
2022-11-26T15:05:49.966Z,3.10
2022-11-26T15:10:03.806Z,3.72
2022-11-26T15:14:06.848Z,3.63
2022-11-26T15:18:16.248Z,2.75
2022-11-26T15:22:23.124Z,3.42
2022-11-26T15:26:33.199Z,3.22
2022-11-26T15:30:38.160Z,4.65
2022-11-26T15:34:42.204Z,3.58
2022-11-26T15:39:03.061Z,4.20
2022-11-26T15:43:07.640Z,6.00
2022-11-26T15:47:20.614Z,3.47
2022-11-26T15:51:33.779Z,4.93
2022-11-26T15:55:38.962Z,5.70
2022-11-26T15:59:48.980Z,4.32
2022-11-26T16:03:53.762Z,3.13
2022-11-26T16:07:58.198Z,5.53
2022-11-26T16:12:02.302Z,4.47
2022-11-26T16:16:14.640Z,7.53
2022-11-26T16:20:20.244Z,5.40
2022-11-26T16:24:29.508Z,3.95
2022-11-26T16:28:32.565Z,4.80
2022-11-26T16:32:36.928Z,5.78
2022-11-26T16:36:44.190Z,5.30
2022-11-26T16:40:47.216Z,5.50
2022-11-26T16:44:50.822Z,4.60
2022-11-26T16:48:55.386Z,6.05
2022-11-26T16:52:58.391Z,4.90
2022-11-26T16:57:02.075Z,5.38
2022-11-26T17:01:05.081Z,5.18
2022-11-26T17:05:09.916Z,5.65
2022-11-26T17:09:18.725Z,3.90
2022-11-26T17:13:21.886Z,5.10
2022-11-26T17:17:29.315Z,3.20
2022-11-26T17:21:33.887Z,5.00
2022-11-26T17:25:36.872Z,4.07
2022-11-26T17:29:42.795Z,4.28
2022-11-26T17:33:46.165Z,3.70
2022-11-26T17:37:50.788Z,4.60
2022-11-26T17:41:54.185Z,3.15
2022-11-26T17:45:59.321Z,3.63
2022-11-26T17:50:02.375Z,3.33
2022-11-26T17:54:07.060Z,4.88
2022-11-26T17:58:12.386Z,4.30
2022-11-26T18:02:15.686Z,5.93
2022-11-26T18:06:21.378Z,5.05
2022-11-26T18:10:25.907Z,4.43
2022-11-26T18:14:29.219Z,5.03
2022-11-26T18:18:32.219Z,3.65
2022-11-26T18:22:35.179Z,5.78
2022-11-26T18:26:41.175Z,3.78
2022-11-26T18:30:44.676Z,6.97
2022-11-26T18:34:50.070Z,5.93
2022-11-26T18:38:53.330Z,4.18
2022-11-26T18:42:57.894Z,5.10
2022-11-26T18:47:04.344Z,4.70
2022-11-26T18:51:10.432Z,4.45
2022-11-26T18:55:14.908Z,8.70
2022-11-26T18:59:19.267Z,5.30
2022-11-26T19:03:22.305Z,4.28
2022-11-26T19:07:25.354Z,5.03
2022-11-26T19:11:29.263Z,4.68
2022-11-26T19:15:34.547Z,4.47
2022-11-26T19:19:39.416Z,6.47
2022-11-26T19:23:42.912Z,5.07
2022-11-26T19:27:45.880Z,5.95
2022-11-26T19:31:50.469Z,4.60
2022-11-26T19:35:53.470Z,3.28
2022-11-26T19:39:56.783Z,5.00
2022-11-26T19:44:01.410Z,3.60
2022-11-26T19:48:05.958Z,4.00
2022-11-26T19:52:08.945Z,4.47
2022-11-26T19:56:16.348Z,4.28
2022-11-26T20:00:19.734Z,4.72
2022-11-26T20:04:27.460Z,4.65
2022-11-26T20:08:30.678Z,6.05
2022-11-26T20:12:33.731Z,6.25
2022-11-26T20:16:37.279Z,4.93
2022-11-26T20:20:41.899Z,3.63
2022-11-26T20:24:44.843Z,6.78
2022-11-26T20:28:47.830Z,4.72
2022-11-26T20:32:50.852Z,4.70
2022-11-26T20:36:55.295Z,3.58
2022-11-26T20:40:58.519Z,3.00
2022-11-26T20:45:01.521Z,6.85
2022-11-26T20:49:05.859Z,3.80
2022-11-26T20:53:10.219Z,3.70
2022-11-26T20:57:13.217Z,4.55
2022-11-26T21:01:17.867Z,4.18
2022-11-26T21:05:21.464Z,4.43
2022-11-26T21:09:25.952Z,4.15
2022-11-26T21:13:28.964Z,5.07
2022-11-26T21:17:32.358Z,3.17
2022-11-26T21:21:35.521Z,6.28
2022-11-26T21:25:41.675Z,3.78
2022-11-26T21:29:46.186Z,4.80
2022-11-26T21:33:55.183Z,4.35
2022-11-26T21:37:59.262Z,4.68
2022-11-26T21:42:03.603Z,4.05
2022-11-26T21:46:08.563Z,4.57
2022-11-26T21:50:13.047Z,6.75
2022-11-26T21:54:16.447Z,4.72
2022-11-26T21:58:21.341Z,3.85
2022-11-26T22:02:24.587Z,4.55
2022-11-26T22:06:28.027Z,4.90
2022-11-26T22:10:35.945Z,4.60
2022-11-26T22:14:40.730Z,4.45
2022-11-26T22:18:45.387Z,5.00
2022-11-26T22:22:48.540Z,4.63
2022-11-26T22:26:52.513Z,4.55
2022-11-26T22:30:57.158Z,5.57
2022-11-26T22:35:00.119Z,4.55
2022-11-26T22:39:04.760Z,4.80
2022-11-26T22:43:07.722Z,4.45
2022-11-26T22:47:12.276Z,5.82
2022-11-26T22:51:15.614Z,4.22
2022-11-26T22:55:18.775Z,5.30
2022-11-26T22:59:21.751Z,3.30
2022-11-26T23:03:27.857Z,5.05
2022-11-26T23:07:31.297Z,4.45
2022-11-26T23:11:36.458Z,5.30
2022-11-26T23:15:44.500Z,4.90
2022-11-26T23:19:49.385Z,5.10
2022-11-26T23:23:53.178Z,6.22
2022-11-26T23:27:56.333Z,5.55
2022-11-26T23:31:59.380Z,6.53
2022-11-26T23:36:04.428Z,6.65
2022-11-26T23:40:09.214Z,5.45
2022-11-26T23:44:12.205Z,5.47
2022-11-26T23:48:15.204Z,5.28
2022-11-26T23:52:19.580Z,5.60
2022-11-26T23:56:25.042Z,4.88
